Rome, Italy

1:17 PM CEST on July 25, 2016 (GMT +0200)
Cecchignola | | Change Station
Active Advisory: >

Elev 197 ft 41.82 °N, 12.50 °E | Updated 11 minutes ago

Partly Cloudy
Partly Cloudy
88.3 °F
Feels Like 92 °F
N
0.0
Wind Variable Wind from ESE
Gusts 3.0 mph

Today
High -- | Low -- °F
--% Chance of Precip.
Yesterday
High -- | Low -- °F
Precip. -- in
Pressure 29.92 in
Visibility 6.2 miles
Clouds Few 2000 ft
Few 2500 ft
Heat Index 92 °F
Dew Point 68 °F
Humidity 52%
Rainfall 0.00 in
Snow Depth Not available.
5:57 AM 8:35 PM
Waning Gibbous, 67% visible
METAR LIRE 251055Z 23009KT 9999 FEW020 FEW025TCU 28/24 Q1013 RMK SCT VIS MIN 9999 WIND THR13 25008KT WIND THR31 24009KT BLU
Pressure 29.92 in
Visibility 6.2 miles
Clouds Few 2000 ft
Few 2500 ft
Heat Index 92 °F
Dew Point 68 °F
Humidity 52%
Rainfall 0.00 in
Snow Depth Not available.
5:57 AM 8:35 PM
Waning Gibbous, 67% visible
METAR LIRE 251055Z 23009KT 9999 FEW020 FEW025TCU 28/24 Q1013 RMK SCT VIS MIN 9999 WIND THR13 25008KT WIND THR31 24009KT BLU

10-Day Weather Forecast

×

Almanac

Astronomy

Jul. 25, 2016 Rise Set
Actual Time
Civil Twilight
Nautical Twilight
Astronomical Twilight
Moon
Length of Visible Light
Length of Day
Tomorrow will be .
, % of the Moon is Illuminated

Today's Extremes

Country Highs Country Lows

Community

WunderPhotos

Upload Photos

1,927,291 photos uploaded!

WunderBlog® & News

Nearby

Air Quality

  Air Quality AQ Index Pollutant
Not available.

Snow Depth

Station Depth Elevation

Earthquake Activity

City Distance Mag. Time & Date
Minimum magnitude displayed is 2.5.

Coastal Water Temperatures

Place Temperature

Stations

Nearby Weather Stations

Station Location Temp. Windchill Dew Point Humidity Wind Precip. Elev Updated Type